sensor_id;sensor_type;location;lat;lon;timestamp;temperature;humidity
32536;DHT22;18974;50.838;4.636;2023-10-09T00:00:16;15.90;99.90
32536;DHT22;18974;50.838;4.636;2023-10-09T00:03:01;15.80;99.90
32536;DHT22;18974;50.838;4.636;2023-10-09T00:05:27;15.80;99.90
32536;DHT22;18974;50.838;4.636;2023-10-09T00:08:12;15.80;99.90
32536;DHT22;18974;50.838;4.636;2023-10-09T00:10:42;15.80;99.90
32536;DHT22;18974;50.838;4.636;2023-10-09T00:13:14;15.80;99.90
32536;DHT22;18974;50.838;4.636;2023-10-09T00:15:40;15.80;99.90
32536;DHT22;18974;50.838;4.636;2023-10-09T00:18:07;15.80;99.90
32536;DHT22;18974;50.838;4.636;2023-10-09T00:20:40;15.70;99.90
32536;DHT22;18974;50.838;4.636;2023-10-09T00:23:09;15.70;99.90
32536;DHT22;18974;50.838;4.636;2023-10-09T00:25:50;15.70;99.90
32536;DHT22;18974;50.838;4.636;2023-10-09T00:28:35;15.70;99.90
32536;DHT22;18974;50.838;4.636;2023-10-09T00:31:02;15.70;99.90
32536;DHT22;18974;50.838;4.636;2023-10-09T00:33:32;15.80;99.90
32536;DHT22;18974;50.838;4.636;2023-10-09T00:36:02;15.80;99.90
32536;DHT22;18974;50.838;4.636;2023-10-09T00:38:38;15.80;99.90
32536;DHT22;18974;50.838;4.636;2023-10-09T00:41:17;15.80;99.90
32536;DHT22;18974;50.838;4.636;2023-10-09T00:43:47;15.80;99.90
32536;DHT22;18974;50.838;4.636;2023-10-09T00:46:18;15.90;99.90
32536;DHT22;18974;50.838;4.636;2023-10-09T00:48:49;15.90;99.90
32536;DHT22;18974;50.838;4.636;2023-10-09T00:51:19;15.80;99.90
32536;DHT22;18974;50.838;4.636;2023-10-09T00:53:49;15.90;99.90
32536;DHT22;18974;50.838;4.636;2023-10-09T00:56:19;15.90;99.90
32536;DHT22;18974;50.838;4.636;2023-10-09T00:58:56;15.90;99.90
32536;DHT22;18974;50.838;4.636;2023-10-09T01:01:39;16.00;99.90
32536;DHT22;18974;50.838;4.636;2023-10-09T01:04:07;16.00;99.90
32536;DHT22;18974;50.838;4.636;2023-10-09T01:06:40;16.00;99.90
32536;DHT22;18974;50.838;4.636;2023-10-09T01:09:11;16.10;99.90
32536;DHT22;18974;50.838;4.636;2023-10-09T01:11:40;16.00;99.90
32536;DHT22;18974;50.838;4.636;2023-10-09T01:14:29;15.90;99.90
32536;DHT22;18974;50.838;4.636;2023-10-09T01:16:57;15.80;99.90
32536;DHT22;18974;50.838;4.636;2023-10-09T01:19:23;15.90;99.90
32536;DHT22;18974;50.838;4.636;2023-10-09T01:21:56;15.90;99.90
32536;DHT22;18974;50.838;4.636;2023-10-09T01:24:29;15.90;99.90
32536;DHT22;18974;50.838;4.636;2023-10-09T01:26:57;15.80;99.90
32536;DHT22;18974;50.838;4.636;2023-10-09T01:29:25;15.80;99.90
32536;DHT22;18974;50.838;4.636;2023-10-09T01:31:55;15.60;99.90
32536;DHT22;18974;50.838;4.636;2023-10-09T01:34:22;15.60;99.90
32536;DHT22;18974;50.838;4.636;2023-10-09T01:36:51;15.60;99.90
32536;DHT22;18974;50.838;4.636;2023-10-09T01:39:19;15.60;99.90
32536;DHT22;18974;50.838;4.636;2023-10-09T01:41:56;15.70;99.90
32536;DHT22;18974;50.838;4.636;2023-10-09T01:44:26;15.80;99.90
32536;DHT22;18974;50.838;4.636;2023-10-09T01:46:53;15.80;99.90
32536;DHT22;18974;50.838;4.636;2023-10-09T01:49:23;15.70;99.90
32536;DHT22;18974;50.838;4.636;2023-10-09T01:51:55;15.80;99.90
32536;DHT22;18974;50.838;4.636;2023-10-09T01:54:25;15.90;99.90
32536;DHT22;18974;50.838;4.636;2023-10-09T01:57:18;15.90;99.90
32536;DHT22;18974;50.838;4.636;2023-10-09T01:59:51;15.90;99.90
32536;DHT22;18974;50.838;4.636;2023-10-09T02:02:21;15.90;99.90
32536;DHT22;18974;50.838;4.636;2023-10-09T02:04:59;15.90;99.90
32536;DHT22;18974;50.838;4.636;2023-10-09T02:07:41;15.80;99.90
32536;DHT22;18974;50.838;4.636;2023-10-09T02:10:14;15.80;99.90
32536;DHT22;18974;50.838;4.636;2023-10-09T02:12:59;15.80;99.90
32536;DHT22;18974;50.838;4.636;2023-10-09T02:15:32;15.80;99.90
32536;DHT22;18974;50.838;4.636;2023-10-09T02:18:07;15.80;99.90
32536;DHT22;18974;50.838;4.636;2023-10-09T02:23:38;15.90;99.90
32536;DHT22;18974;50.838;4.636;2023-10-09T02:26:18;15.90;99.90
32536;DHT22;18974;50.838;4.636;2023-10-09T02:28:54;15.90;99.90
32536;DHT22;18974;50.838;4.636;2023-10-09T02:31:29;15.80;99.90
32536;DHT22;18974;50.838;4.636;2023-10-09T02:34:07;15.70;99.90
32536;DHT22;18974;50.838;4.636;2023-10-09T02:36:40;15.60;99.90
32536;DHT22;18974;50.838;4.636;2023-10-09T02:39:14;15.60;99.90
32536;DHT22;18974;50.838;4.636;2023-10-09T02:41:54;15.60;99.90
32536;DHT22;18974;50.838;4.636;2023-10-09T02:44:27;15.60;99.90
32536;DHT22;18974;50.838;4.636;2023-10-09T02:46:57;15.50;99.90
32536;DHT22;18974;50.838;4.636;2023-10-09T02:49:24;15.70;99.90
32536;DHT22;18974;50.838;4.636;2023-10-09T02:51:50;15.60;99.90
32536;DHT22;18974;50.838;4.636;2023-10-09T02:54:19;15.60;99.90
32536;DHT22;18974;50.838;4.636;2023-10-09T02:56:53;15.70;99.90
32536;DHT22;18974;50.838;4.636;2023-10-09T02:59:31;15.70;99.90
32536;DHT22;18974;50.838;4.636;2023-10-09T03:01:57;15.80;99.90
32536;DHT22;18974;50.838;4.636;2023-10-09T03:04:28;15.80;99.90
32536;DHT22;18974;50.838;4.636;2023-10-09T03:06:55;15.80;99.90
32536;DHT22;18974;50.838;4.636;2023-10-09T03:09:23;15.90;99.90
32536;DHT22;18974;50.838;4.636;2023-10-09T03:12:00;15.70;99.90
32536;DHT22;18974;50.838;4.636;2023-10-09T03:14:30;15.70;99.90
32536;DHT22;18974;50.838;4.636;2023-10-09T03:16:57;15.70;99.90
32536;DHT22;18974;50.838;4.636;2023-10-09T03:19:25;15.80;99.90
32536;DHT22;18974;50.838;4.636;2023-10-09T03:21:52;15.70;99.90
32536;DHT22;18974;50.838;4.636;2023-10-09T03:24:18;15.80;99.90
32536;DHT22;18974;50.838;4.636;2023-10-09T03:26:45;15.80;99.90
32536;DHT22;18974;50.838;4.636;2023-10-09T03:29:11;16.00;99.90
32536;DHT22;18974;50.838;4.636;2023-10-09T03:31:37;15.90;99.90
32536;DHT22;18974;50.838;4.636;2023-10-09T03:34:04;15.70;99.90
32536;DHT22;18974;50.838;4.636;2023-10-09T03:36:30;15.60;99.90
32536;DHT22;18974;50.838;4.636;2023-10-09T03:38:57;15.60;99.90
32536;DHT22;18974;50.838;4.636;2023-10-09T03:41:25;15.70;99.90
32536;DHT22;18974;50.838;4.636;2023-10-09T03:43:54;15.80;99.90
32536;DHT22;18974;50.838;4.636;2023-10-09T03:46:21;15.70;99.90
32536;DHT22;18974;50.838;4.636;2023-10-09T03:48:51;15.60;99.90
32536;DHT22;18974;50.838;4.636;2023-10-09T03:51:18;15.60;99.90
32536;DHT22;18974;50.838;4.636;2023-10-09T03:53:51;15.60;99.90
32536;DHT22;18974;50.838;4.636;2023-10-09T03:56:20;15.60;99.90
32536;DHT22;18974;50.838;4.636;2023-10-09T03:58:51;15.60;99.90
32536;DHT22;18974;50.838;4.636;2023-10-09T04:01:21;15.70;99.90
32536;DHT22;18974;50.838;4.636;2023-10-09T04:04:04;15.60;99.90
32536;DHT22;18974;50.838;4.636;2023-10-09T04:06:32;15.50;99.90
32536;DHT22;18974;50.838;4.636;2023-10-09T04:09:03;15.50;99.90
32536;DHT22;18974;50.838;4.636;2023-10-09T04:11:58;15.50;99.90
32536;DHT22;18974;50.838;4.636;2023-10-09T04:14:38;15.50;99.90
32536;DHT22;18974;50.838;4.636;2023-10-09T04:17:26;15.50;99.90
32536;DHT22;18974;50.838;4.636;2023-10-09T04:19:58;15.40;99.90
32536;DHT22;18974;50.838;4.636;2023-10-09T04:22:43;15.50;99.90
32536;DHT22;18974;50.838;4.636;2023-10-09T04:25:20;15.50;99.90
32536;DHT22;18974;50.838;4.636;2023-10-09T04:27:59;15.60;99.90
32536;DHT22;18974;50.838;4.636;2023-10-09T04:30:38;15.60;99.90
32536;DHT22;18974;50.838;4.636;2023-10-09T04:33:15;15.60;99.90
32536;DHT22;18974;50.838;4.636;2023-10-09T04:36:02;15.60;99.90
32536;DHT22;18974;50.838;4.636;2023-10-09T04:38:54;15.60;99.90
32536;DHT22;18974;50.838;4.636;2023-10-09T04:41:30;15.70;99.90
32536;DHT22;18974;50.838;4.636;2023-10-09T04:44:09;15.60;99.90
32536;DHT22;18974;50.838;4.636;2023-10-09T04:47:01;15.70;99.90
32536;DHT22;18974;50.838;4.636;2023-10-09T04:49:38;15.70;99.90
32536;DHT22;18974;50.838;4.636;2023-10-09T04:52:22;15.70;99.90
32536;DHT22;18974;50.838;4.636;2023-10-09T04:55:16;15.80;99.90
32536;DHT22;18974;50.838;4.636;2023-10-09T04:57:46;15.80;99.90
32536;DHT22;18974;50.838;4.636;2023-10-09T05:00:16;15.80;99.90
32536;DHT22;18974;50.838;4.636;2023-10-09T05:02:49;15.80;99.90
32536;DHT22;18974;50.838;4.636;2023-10-09T05:05:26;15.90;99.90
32536;DHT22;18974;50.838;4.636;2023-10-09T05:08:12;15.90;99.90
32536;DHT22;18974;50.838;4.636;2023-10-09T05:10:44;15.90;99.90
32536;DHT22;18974;50.838;4.636;2023-10-09T05:13:36;15.90;99.90
32536;DHT22;18974;50.838;4.636;2023-10-09T05:16:08;15.90;99.90
32536;DHT22;18974;50.838;4.636;2023-10-09T05:18:54;16.00;99.90
32536;DHT22;18974;50.838;4.636;2023-10-09T05:21:26;16.00;99.90
32536;DHT22;18974;50.838;4.636;2023-10-09T05:23:59;16.00;99.90
32536;DHT22;18974;50.838;4.636;2023-10-09T05:26:47;16.00;99.90
32536;DHT22;18974;50.838;4.636;2023-10-09T05:29:15;16.00;99.90
32536;DHT22;18974;50.838;4.636;2023-10-09T05:32:00;16.00;99.90
32536;DHT22;18974;50.838;4.636;2023-10-09T05:34:34;16.00;99.90
32536;DHT22;18974;50.838;4.636;2023-10-09T05:37:05;15.90;99.90
32536;DHT22;18974;50.838;4.636;2023-10-09T05:39:46;15.90;99.90
32536;DHT22;18974;50.838;4.636;2023-10-09T05:42:31;15.90;99.90
32536;DHT22;18974;50.838;4.636;2023-10-09T05:45:17;15.90;99.90
32536;DHT22;18974;50.838;4.636;2023-10-09T05:47:51;15.90;99.90
32536;DHT22;18974;50.838;4.636;2023-10-09T05:50:25;16.00;99.90
32536;DHT22;18974;50.838;4.636;2023-10-09T05:52:55;16.00;99.90
32536;DHT22;18974;50.838;4.636;2023-10-09T05:55:21;15.90;99.90
32536;DHT22;18974;50.838;4.636;2023-10-09T05:58:06;15.90;99.90
32536;DHT22;18974;50.838;4.636;2023-10-09T06:00:34;15.90;99.90
32536;DHT22;18974;50.838;4.636;2023-10-09T06:03:19;15.90;99.90
32536;DHT22;18974;50.838;4.636;2023-10-09T06:08:28;15.80;99.90
32536;DHT22;18974;50.838;4.636;2023-10-09T06:11:10;15.90;99.90
32536;DHT22;18974;50.838;4.636;2023-10-09T06:13:56;15.90;99.90
32536;DHT22;18974;50.838;4.636;2023-10-09T06:16:38;16.00;99.90
32536;DHT22;18974;50.838;4.636;2023-10-09T06:19:05;16.00;99.90
32536;DHT22;18974;50.838;4.636;2023-10-09T06:21:46;16.00;99.90
32536;DHT22;18974;50.838;4.636;2023-10-09T06:26:45;16.10;99.90
32536;DHT22;18974;50.838;4.636;2023-10-09T06:29:24;16.10;99.90
32536;DHT22;18974;50.838;4.636;2023-10-09T06:32:02;16.10;99.90
32536;DHT22;18974;50.838;4.636;2023-10-09T06:34:48;16.10;99.90
32536;DHT22;18974;50.838;4.636;2023-10-09T06:37:48;16.00;99.90
32536;DHT22;18974;50.838;4.636;2023-10-09T06:40:37;16.10;99.90
32536;DHT22;18974;50.838;4.636;2023-10-09T06:43:23;16.10;99.90
32536;DHT22;18974;50.838;4.636;2023-10-09T06:45:49;16.10;99.90
32536;DHT22;18974;50.838;4.636;2023-10-09T06:48:24;16.00;99.90
32536;DHT22;18974;50.838;4.636;2023-10-09T06:51:06;16.10;99.90
32536;DHT22;18974;50.838;4.636;2023-10-09T06:53:41;16.10;99.90
32536;DHT22;18974;50.838;4.636;2023-10-09T06:56:13;16.10;99.90
32536;DHT22;18974;50.838;4.636;2023-10-09T06:58:51;16.20;99.90
32536;DHT22;18974;50.838;4.636;2023-10-09T07:01:35;16.30;99.90
32536;DHT22;18974;50.838;4.636;2023-10-09T07:04:04;16.30;99.90
32536;DHT22;18974;50.838;4.636;2023-10-09T07:06:48;16.40;99.90
32536;DHT22;18974;50.838;4.636;2023-10-09T07:09:18;16.50;99.90
32536;DHT22;18974;50.838;4.636;2023-10-09T07:11:49;16.50;99.90
32536;DHT22;18974;50.838;4.636;2023-10-09T07:14:22;16.60;99.90
32536;DHT22;18974;50.838;4.636;2023-10-09T07:16:59;16.70;99.90
32536;DHT22;18974;50.838;4.636;2023-10-09T07:19:32;16.70;99.90
32536;DHT22;18974;50.838;4.636;2023-10-09T07:22:28;16.70;99.90
32536;DHT22;18974;50.838;4.636;2023-10-09T07:25:05;16.80;99.90
32536;DHT22;18974;50.838;4.636;2023-10-09T07:27:49;16.90;99.90
32536;DHT22;18974;50.838;4.636;2023-10-09T07:30:21;17.10;99.90
32536;DHT22;18974;50.838;4.636;2023-10-09T07:32:53;17.20;99.90
32536;DHT22;18974;50.838;4.636;2023-10-09T07:35:21;17.20;99.90
32536;DHT22;18974;50.838;4.636;2023-10-09T07:38:05;17.20;99.90
32536;DHT22;18974;50.838;4.636;2023-10-09T07:40:35;17.20;99.90
32536;DHT22;18974;50.838;4.636;2023-10-09T07:43:21;17.20;99.90
32536;DHT22;18974;50.838;4.636;2023-10-09T07:45:55;17.30;99.90
32536;DHT22;18974;50.838;4.636;2023-10-09T07:48:24;17.40;99.90
32536;DHT22;18974;50.838;4.636;2023-10-09T07:51:11;17.50;99.90
32536;DHT22;18974;50.838;4.636;2023-10-09T07:53:36;17.60;99.90
32536;DHT22;18974;50.838;4.636;2023-10-09T07:56:12;17.70;99.90
32536;DHT22;18974;50.838;4.636;2023-10-09T07:58:47;17.80;99.90
32536;DHT22;18974;50.838;4.636;2023-10-09T08:01:14;18.00;99.90
32536;DHT22;18974;50.838;4.636;2023-10-09T08:03:49;18.20;99.90
32536;DHT22;18974;50.838;4.636;2023-10-09T08:06:24;18.30;99.90
32536;DHT22;18974;50.838;4.636;2023-10-09T08:09:09;18.40;99.90
32536;DHT22;18974;50.838;4.636;2023-10-09T08:11:37;18.50;99.90
32536;DHT22;18974;50.838;4.636;2023-10-09T08:14:09;18.60;99.90
32536;DHT22;18974;50.838;4.636;2023-10-09T08:16:54;18.70;99.90
32536;DHT22;18974;50.838;4.636;2023-10-09T08:19:39;18.60;99.90
32536;DHT22;18974;50.838;4.636;2023-10-09T08:22:24;18.80;99.90
32536;DHT22;18974;50.838;4.636;2023-10-09T08:24:51;18.80;99.90
32536;DHT22;18974;50.838;4.636;2023-10-09T08:27:22;18.90;99.90
32536;DHT22;18974;50.838;4.636;2023-10-09T08:29:54;18.80;99.90
32536;DHT22;18974;50.838;4.636;2023-10-09T08:32:40;18.90;99.90
32536;DHT22;18974;50.838;4.636;2023-10-09T08:35:09;18.80;99.90
32536;DHT22;18974;50.838;4.636;2023-10-09T08:37:56;18.80;99.90
32536;DHT22;18974;50.838;4.636;2023-10-09T08:40:42;18.90;99.90
32536;DHT22;18974;50.838;4.636;2023-10-09T08:43:19;19.00;99.90
32536;DHT22;18974;50.838;4.636;2023-10-09T08:45:56;19.00;99.90
32536;DHT22;18974;50.838;4.636;2023-10-09T08:48:28;19.00;99.90
32536;DHT22;18974;50.838;4.636;2023-10-09T08:50:55;19.00;99.90
32536;DHT22;18974;50.838;4.636;2023-10-09T08:53:25;19.00;99.90
32536;DHT22;18974;50.838;4.636;2023-10-09T08:55:53;19.00;99.90
32536;DHT22;18974;50.838;4.636;2023-10-09T08:58:20;19.00;99.90
32536;DHT22;18974;50.838;4.636;2023-10-09T09:00:51;19.00;99.90
32536;DHT22;18974;50.838;4.636;2023-10-09T09:03:19;19.10;99.90
32536;DHT22;18974;50.838;4.636;2023-10-09T09:06:00;19.10;99.90
32536;DHT22;18974;50.838;4.636;2023-10-09T09:08:27;19.20;99.90
32536;DHT22;18974;50.838;4.636;2023-10-09T09:11:09;19.30;99.90
32536;DHT22;18974;50.838;4.636;2023-10-09T09:13:48;19.30;99.90
32536;DHT22;18974;50.838;4.636;2023-10-09T09:16:44;19.60;99.90
32536;DHT22;18974;50.838;4.636;2023-10-09T09:19:14;19.80;99.90
32536;DHT22;18974;50.838;4.636;2023-10-09T09:21:57;19.90;99.90
32536;DHT22;18974;50.838;4.636;2023-10-09T09:24:25;20.10;99.90
32536;DHT22;18974;50.838;4.636;2023-10-09T09:26:55;20.20;99.90
32536;DHT22;18974;50.838;4.636;2023-10-09T09:29:44;20.40;99.90
32536;DHT22;18974;50.838;4.636;2023-10-09T09:32:27;20.40;99.90
32536;DHT22;18974;50.838;4.636;2023-10-09T09:34:55;20.40;99.90
32536;DHT22;18974;50.838;4.636;2023-10-09T09:37:28;20.40;99.90
32536;DHT22;18974;50.838;4.636;2023-10-09T09:40:02;20.30;99.90
32536;DHT22;18974;50.838;4.636;2023-10-09T09:42:58;20.40;99.90
32536;DHT22;18974;50.838;4.636;2023-10-09T09:45:40;20.40;99.90
32536;DHT22;18974;50.838;4.636;2023-10-09T09:48:14;20.60;99.90
32536;DHT22;18974;50.838;4.636;2023-10-09T09:50:42;20.70;99.90
32536;DHT22;18974;50.838;4.636;2023-10-09T09:53:13;20.90;99.90
32536;DHT22;18974;50.838;4.636;2023-10-09T09:55:49;21.10;99.90
32536;DHT22;18974;50.838;4.636;2023-10-09T09:58:18;21.30;99.90
32536;DHT22;18974;50.838;4.636;2023-10-09T10:00:52;21.50;99.90
32536;DHT22;18974;50.838;4.636;2023-10-09T10:03:29;21.60;99.90
32536;DHT22;18974;50.838;4.636;2023-10-09T10:05:59;21.70;99.90
32536;DHT22;18974;50.838;4.636;2023-10-09T10:08:25;21.80;99.90
32536;DHT22;18974;50.838;4.636;2023-10-09T10:11:00;21.70;99.90
32536;DHT22;18974;50.838;4.636;2023-10-09T10:16:12;21.60;99.90
32536;DHT22;18974;50.838;4.636;2023-10-09T10:19:03;21.40;99.90
32536;DHT22;18974;50.838;4.636;2023-10-09T10:21:35;21.60;99.90
32536;DHT22;18974;50.838;4.636;2023-10-09T10:32:57;21.20;99.90
32536;DHT22;18974;50.838;4.636;2023-10-09T10:35:24;21.30;99.90
32536;DHT22;18974;50.838;4.636;2023-10-09T10:41:12;21.40;99.90
32536;DHT22;18974;50.838;4.636;2023-10-09T10:43:45;21.60;99.90
32536;DHT22;18974;50.838;4.636;2023-10-09T10:46:23;21.60;99.90
32536;DHT22;18974;50.838;4.636;2023-10-09T10:48:54;21.70;99.90
32536;DHT22;18974;50.838;4.636;2023-10-09T10:51:41;21.80;99.90
32536;DHT22;18974;50.838;4.636;2023-10-09T10:54:07;22.00;99.90
32536;DHT22;18974;50.838;4.636;2023-10-09T10:56:52;22.10;99.90
32536;DHT22;18974;50.838;4.636;2023-10-09T10:59:18;22.20;99.90
32536;DHT22;18974;50.838;4.636;2023-10-09T11:01:53;22.10;99.90
32536;DHT22;18974;50.838;4.636;2023-10-09T11:04:23;21.90;99.90
32536;DHT22;18974;50.838;4.636;2023-10-09T11:06:55;21.90;99.90
32536;DHT22;18974;50.838;4.636;2023-10-09T11:09:48;21.70;99.90
32536;DHT22;18974;50.838;4.636;2023-10-09T11:12:46;21.80;99.90
32536;DHT22;18974;50.838;4.636;2023-10-09T11:15:29;21.90;99.90
32536;DHT22;18974;50.838;4.636;2023-10-09T11:18:21;22.10;99.90
32536;DHT22;18974;50.838;4.636;2023-10-09T11:20:57;22.00;99.90
32536;DHT22;18974;50.838;4.636;2023-10-09T11:23:30;22.20;99.90
32536;DHT22;18974;50.838;4.636;2023-10-09T11:25:59;22.40;99.90
32536;DHT22;18974;50.838;4.636;2023-10-09T11:28:44;22.50;99.90
32536;DHT22;18974;50.838;4.636;2023-10-09T11:31:23;22.60;99.90
32536;DHT22;18974;50.838;4.636;2023-10-09T11:33:50;22.90;99.90
32536;DHT22;18974;50.838;4.636;2023-10-09T11:36:21;23.00;99.90
32536;DHT22;18974;50.838;4.636;2023-10-09T11:39:00;23.10;99.90
32536;DHT22;18974;50.838;4.636;2023-10-09T11:41:42;23.30;99.90
32536;DHT22;18974;50.838;4.636;2023-10-09T11:44:08;23.40;99.90
32536;DHT22;18974;50.838;4.636;2023-10-09T11:47:00;23.60;99.90
32536;DHT22;18974;50.838;4.636;2023-10-09T11:49:51;23.50;99.90
32536;DHT22;18974;50.838;4.636;2023-10-09T11:52:30;23.60;99.90
32536;DHT22;18974;50.838;4.636;2023-10-09T11:55:22;23.50;99.90
32536;DHT22;18974;50.838;4.636;2023-10-09T11:57:51;23.50;99.90
32536;DHT22;18974;50.838;4.636;2023-10-09T12:00:16;23.60;99.90
32536;DHT22;18974;50.838;4.636;2023-10-09T12:02:55;23.50;99.90
32536;DHT22;18974;50.838;4.636;2023-10-09T12:05:21;23.60;99.90
32536;DHT22;18974;50.838;4.636;2023-10-09T12:07:49;23.70;99.90
32536;DHT22;18974;50.838;4.636;2023-10-09T12:10:20;23.70;99.90
32536;DHT22;18974;50.838;4.636;2023-10-09T12:12:54;23.80;99.90
32536;DHT22;18974;50.838;4.636;2023-10-09T12:15:23;23.80;99.90
32536;DHT22;18974;50.838;4.636;2023-10-09T12:17:49;23.80;99.90
32536;DHT22;18974;50.838;4.636;2023-10-09T12:20:16;23.80;99.90
32536;DHT22;18974;50.838;4.636;2023-10-09T12:23:05;23.90;99.90
32536;DHT22;18974;50.838;4.636;2023-10-09T12:25:32;23.90;99.90
32536;DHT22;18974;50.838;4.636;2023-10-09T12:28:01;24.00;99.90
32536;DHT22;18974;50.838;4.636;2023-10-09T12:30:31;24.00;99.90
32536;DHT22;18974;50.838;4.636;2023-10-09T12:32:57;23.70;99.90
32536;DHT22;18974;50.838;4.636;2023-10-09T12:35:24;23.70;99.90
32536;DHT22;18974;50.838;4.636;2023-10-09T12:37:51;23.60;99.90
32536;DHT22;18974;50.838;4.636;2023-10-09T12:40:17;23.60;99.90
32536;DHT22;18974;50.838;4.636;2023-10-09T12:42:51;23.70;99.90
32536;DHT22;18974;50.838;4.636;2023-10-09T12:45:18;23.80;99.90
32536;DHT22;18974;50.838;4.636;2023-10-09T12:47:45;23.80;99.90
32536;DHT22;18974;50.838;4.636;2023-10-09T12:50:13;23.80;99.90
32536;DHT22;18974;50.838;4.636;2023-10-09T12:52:40;23.90;99.90
32536;DHT22;18974;50.838;4.636;2023-10-09T12:55:06;23.90;99.90
32536;DHT22;18974;50.838;4.636;2023-10-09T12:57:35;24.00;99.90
32536;DHT22;18974;50.838;4.636;2023-10-09T13:00:02;24.10;99.90
32536;DHT22;18974;50.838;4.636;2023-10-09T13:02:36;24.10;99.90
32536;DHT22;18974;50.838;4.636;2023-10-09T13:05:02;24.10;99.90
32536;DHT22;18974;50.838;4.636;2023-10-09T13:07:30;24.20;99.90
32536;DHT22;18974;50.838;4.636;2023-10-09T13:09:56;24.10;99.90
32536;DHT22;18974;50.838;4.636;2023-10-09T13:12:34;24.10;99.90
32536;DHT22;18974;50.838;4.636;2023-10-09T13:15:09;24.00;99.90
32536;DHT22;18974;50.838;4.636;2023-10-09T13:17:36;24.00;99.90
32536;DHT22;18974;50.838;4.636;2023-10-09T13:20:03;23.90;99.90
32536;DHT22;18974;50.838;4.636;2023-10-09T13:22:42;23.90;99.90
32536;DHT22;18974;50.838;4.636;2023-10-09T13:25:09;23.90;99.90
32536;DHT22;18974;50.838;4.636;2023-10-09T13:27:44;23.90;99.90
32536;DHT22;18974;50.838;4.636;2023-10-09T13:30:17;23.80;99.90
32536;DHT22;18974;50.838;4.636;2023-10-09T13:32:48;23.70;99.90
32536;DHT22;18974;50.838;4.636;2023-10-09T13:35:18;23.60;99.90
32536;DHT22;18974;50.838;4.636;2023-10-09T13:37:45;23.50;99.90
32536;DHT22;18974;50.838;4.636;2023-10-09T13:40:21;23.50;99.90
32536;DHT22;18974;50.838;4.636;2023-10-09T13:42:54;23.50;99.90
32536;DHT22;18974;50.838;4.636;2023-10-09T13:45:38;23.50;99.90
32536;DHT22;18974;50.838;4.636;2023-10-09T13:48:03;23.60;99.90
32536;DHT22;18974;50.838;4.636;2023-10-09T13:50:30;23.70;99.90
32536;DHT22;18974;50.838;4.636;2023-10-09T13:52:59;23.80;99.90
32536;DHT22;18974;50.838;4.636;2023-10-09T13:55:25;23.80;99.90
32536;DHT22;18974;50.838;4.636;2023-10-09T13:57:57;23.80;99.90
32536;DHT22;18974;50.838;4.636;2023-10-09T14:00:23;23.70;99.90
32536;DHT22;18974;50.838;4.636;2023-10-09T14:02:59;23.80;99.90
32536;DHT22;18974;50.838;4.636;2023-10-09T14:05:28;23.70;99.90
32536;DHT22;18974;50.838;4.636;2023-10-09T14:07:53;23.50;99.90
32536;DHT22;18974;50.838;4.636;2023-10-09T14:10:26;23.40;99.90
32536;DHT22;18974;50.838;4.636;2023-10-09T14:12:55;23.30;99.90
32536;DHT22;18974;50.838;4.636;2023-10-09T14:15:23;23.30;99.90
32536;DHT22;18974;50.838;4.636;2023-10-09T14:17:48;23.20;99.90
32536;DHT22;18974;50.838;4.636;2023-10-09T14:20:21;23.30;99.90
32536;DHT22;18974;50.838;4.636;2023-10-09T14:23:00;23.30;99.90
32536;DHT22;18974;50.838;4.636;2023-10-09T14:25:33;23.30;99.90
32536;DHT22;18974;50.838;4.636;2023-10-09T14:27:59;23.40;99.90
32536;DHT22;18974;50.838;4.636;2023-10-09T14:30:24;23.40;99.90
32536;DHT22;18974;50.838;4.636;2023-10-09T14:32:58;23.40;99.90
32536;DHT22;18974;50.838;4.636;2023-10-09T14:35:27;23.50;99.90
32536;DHT22;18974;50.838;4.636;2023-10-09T14:37:56;23.60;99.90
32536;DHT22;18974;50.838;4.636;2023-10-09T14:40:22;23.60;99.90
32536;DHT22;18974;50.838;4.636;2023-10-09T14:42:55;23.70;99.90
32536;DHT22;18974;50.838;4.636;2023-10-09T14:45:24;23.60;99.90
32536;DHT22;18974;50.838;4.636;2023-10-09T14:47:52;23.50;99.90
32536;DHT22;18974;50.838;4.636;2023-10-09T14:50:22;23.40;99.90
32536;DHT22;18974;50.838;4.636;2023-10-09T14:52:49;23.40;99.90
32536;DHT22;18974;50.838;4.636;2023-10-09T14:55:16;23.40;99.90
32536;DHT22;18974;50.838;4.636;2023-10-09T14:57:47;23.40;99.90
32536;DHT22;18974;50.838;4.636;2023-10-09T15:00:15;23.40;99.90
32536;DHT22;18974;50.838;4.636;2023-10-09T15:02:41;23.30;99.90
32536;DHT22;18974;50.838;4.636;2023-10-09T15:05:07;23.20;99.90
32536;DHT22;18974;50.838;4.636;2023-10-09T15:07:37;23.20;99.90
32536;DHT22;18974;50.838;4.636;2023-10-09T15:10:07;23.10;99.90
32536;DHT22;18974;50.838;4.636;2023-10-09T15:12:35;23.00;99.90
32536;DHT22;18974;50.838;4.636;2023-10-09T15:15:06;23.00;99.90
32536;DHT22;18974;50.838;4.636;2023-10-09T15:17:39;23.00;99.90
32536;DHT22;18974;50.838;4.636;2023-10-09T15:20:14;22.90;99.90
32536;DHT22;18974;50.838;4.636;2023-10-09T15:22:44;23.00;99.90
32536;DHT22;18974;50.838;4.636;2023-10-09T15:25:10;22.80;99.90
32536;DHT22;18974;50.838;4.636;2023-10-09T15:27:45;22.60;99.90
32536;DHT22;18974;50.838;4.636;2023-10-09T15:30:11;22.40;99.90
32536;DHT22;18974;50.838;4.636;2023-10-09T15:32:42;22.20;99.90
32536;DHT22;18974;50.838;4.636;2023-10-09T15:35:09;22.00;99.90
32536;DHT22;18974;50.838;4.636;2023-10-09T15:37:41;21.80;99.90
32536;DHT22;18974;50.838;4.636;2023-10-09T15:40:07;21.60;99.90
32536;DHT22;18974;50.838;4.636;2023-10-09T15:42:43;21.60;99.90
32536;DHT22;18974;50.838;4.636;2023-10-09T15:45:12;21.50;99.90
32536;DHT22;18974;50.838;4.636;2023-10-09T15:47:38;21.30;99.90
32536;DHT22;18974;50.838;4.636;2023-10-09T15:50:05;21.30;99.90
32536;DHT22;18974;50.838;4.636;2023-10-09T15:52:34;21.20;99.90
32536;DHT22;18974;50.838;4.636;2023-10-09T15:55:00;21.00;99.90
32536;DHT22;18974;50.838;4.636;2023-10-09T15:57:26;20.90;99.90
32536;DHT22;18974;50.838;4.636;2023-10-09T15:59:54;20.90;99.90
32536;DHT22;18974;50.838;4.636;2023-10-09T16:02:20;20.80;99.90
32536;DHT22;18974;50.838;4.636;2023-10-09T16:04:46;20.70;99.90
32536;DHT22;18974;50.838;4.636;2023-10-09T16:07:12;20.60;99.90
32536;DHT22;18974;50.838;4.636;2023-10-09T16:09:38;20.50;99.90
32536;DHT22;18974;50.838;4.636;2023-10-09T16:12:06;20.50;99.90
32536;DHT22;18974;50.838;4.636;2023-10-09T16:14:31;20.40;99.90
32536;DHT22;18974;50.838;4.636;2023-10-09T16:17:01;20.30;99.90
32536;DHT22;18974;50.838;4.636;2023-10-09T16:19:27;20.30;99.90
32536;DHT22;18974;50.838;4.636;2023-10-09T16:21:58;20.20;99.90
32536;DHT22;18974;50.838;4.636;2023-10-09T16:24:30;20.10;99.90
32536;DHT22;18974;50.838;4.636;2023-10-09T16:26:58;20.00;99.90
32536;DHT22;18974;50.838;4.636;2023-10-09T16:29:24;19.90;99.90
32536;DHT22;18974;50.838;4.636;2023-10-09T16:31:50;19.90;99.90